createdAt,value
2023-04-18T00:03:15.190Z,15.93
2023-04-18T00:06:32.390Z,16.43
2023-04-18T00:09:49.019Z,16.15
2023-04-18T00:13:06.883Z,17.50
2023-04-18T00:16:23.362Z,18.00
2023-04-18T00:19:42.394Z,16.40
2023-04-18T00:22:58.857Z,17.60
2023-04-18T00:26:15.391Z,15.28
2023-04-18T00:29:33.121Z,12.90
2023-04-18T00:32:49.772Z,12.93
2023-04-18T00:36:06.952Z,13.20
2023-04-18T00:39:23.983Z,13.58
2023-04-18T00:42:40.931Z,13.20
2023-04-18T00:45:57.911Z,12.45
2023-04-18T00:49:16.319Z,11.75
2023-04-18T00:52:36.928Z,12.08
2023-04-18T00:55:53.945Z,11.10
2023-04-18T00:59:11.152Z,10.75
2023-04-18T01:02:30.887Z,10.88
2023-04-18T01:09:03.133Z,10.18
2023-04-18T01:12:20.591Z,12.20
2023-04-18T01:15:38.369Z,11.18
2023-04-18T01:18:55.034Z,12.93
2023-04-18T01:22:12.334Z,12.28
2023-04-18T01:25:29.706Z,12.15
2023-04-18T01:28:47.778Z,9.98
2023-04-18T01:32:04.458Z,10.18
2023-04-18T01:35:21.894Z,12.28
2023-04-18T01:38:38.536Z,12.65
2023-04-18T01:41:55.261Z,11.18
2023-04-18T01:45:15.175Z,11.80
2023-04-18T01:48:31.612Z,12.15
2023-04-18T01:51:48.522Z,14.00
2023-04-18T01:55:04.938Z,13.40
2023-04-18T01:58:23.791Z,12.70
2023-04-18T02:01:40.813Z,11.03
2023-04-18T02:04:57.891Z,11.98
2023-04-18T02:08:14.950Z,11.53
2023-04-18T02:11:33.375Z,11.68
2023-04-18T02:14:51.952Z,12.53
2023-04-18T02:18:08.468Z,11.15
2023-04-18T02:21:27.179Z,12.38
2023-04-18T02:24:43.646Z,13.30
2023-04-18T02:28:00.663Z,13.70
2023-04-18T02:31:19.794Z,14.10
2023-04-18T02:34:36.443Z,14.60
2023-04-18T02:37:53.143Z,15.93
2023-04-18T02:41:09.570Z,15.08
2023-04-18T02:44:26.136Z,16.53
2023-04-18T02:47:54.765Z,18.05
2023-04-18T02:51:11.749Z,19.45
2023-04-18T02:54:28.669Z,19.20
2023-04-18T02:57:52.342Z,19.43
2023-04-18T03:01:15.671Z,20.15
2023-04-18T03:04:39.723Z,21.13
2023-04-18T03:07:57.545Z,19.93
2023-04-18T03:11:14.605Z,20.28
2023-04-18T03:14:32.556Z,22.70
2023-04-18T03:17:49.382Z,20.73
2023-04-18T03:21:08.192Z,21.15
2023-04-18T03:24:25.660Z,20.90
2023-04-18T03:27:43.811Z,21.35
2023-04-18T03:31:01.883Z,21.00
2023-04-18T03:34:20.284Z,19.33
2023-04-18T03:37:38.834Z,18.48
2023-04-18T03:40:57.106Z,19.28
2023-04-18T03:44:15.840Z,19.38
2023-04-18T03:47:32.602Z,19.90
2023-04-18T03:50:49.152Z,19.73
2023-04-18T03:54:06.118Z,19.08
2023-04-18T03:57:22.759Z,19.90
2023-04-18T04:00:41.111Z,18.58
2023-04-18T04:03:58.309Z,19.90
2023-04-18T04:07:15.550Z,18.05
2023-04-18T04:10:32.483Z,18.05
2023-04-18T04:13:50.196Z,20.18
2023-04-18T04:20:25.789Z,18.30
2023-04-18T04:23:44.444Z,19.25
2023-04-18T04:27:04.649Z,17.90
2023-04-18T04:30:23.659Z,19.13
2023-04-18T04:33:51.379Z,18.58
2023-04-18T04:37:09.060Z,17.65
2023-04-18T04:40:28.298Z,16.93
2023-04-18T04:43:47.457Z,18.98
2023-04-18T04:47:05.794Z,21.10
2023-04-18T04:50:26.603Z,17.55
2023-04-18T04:53:43.218Z,17.20
2023-04-18T04:56:59.991Z,17.08
2023-04-18T05:00:21.945Z,17.80
2023-04-18T05:03:42.430Z,16.13
2023-04-18T05:06:59.321Z,17.60
2023-04-18T05:10:18.148Z,17.73
2023-04-18T05:13:34.932Z,17.13
2023-04-18T05:16:51.888Z,17.08
2023-04-18T05:20:09.565Z,16.18
2023-04-18T05:23:26.068Z,16.60
2023-04-18T05:26:42.674Z,18.68
2023-04-18T05:29:59.457Z,17.65
2023-04-18T05:33:17.506Z,17.40
2023-04-18T05:36:34.123Z,18.20
2023-04-18T05:39:50.891Z,16.85
2023-04-18T05:43:08.253Z,18.35
2023-04-18T05:46:24.750Z,19.15
2023-04-18T05:49:41.691Z,19.50
2023-04-18T05:53:00.230Z,17.75
2023-04-18T05:56:17.357Z,20.20
2023-04-18T05:59:34.135Z,18.88
2023-04-18T06:02:51.745Z,18.73
2023-04-18T06:06:08.494Z,20.70
2023-04-18T06:09:24.999Z,20.00
2023-04-18T06:12:41.579Z,21.18
2023-04-18T06:15:58.293Z,20.38
2023-04-18T06:19:14.755Z,19.75
2023-04-18T06:22:31.473Z,19.43
2023-04-18T06:25:52.211Z,19.13
2023-04-18T06:29:08.832Z,17.98
2023-04-18T06:32:25.475Z,17.80
2023-04-18T06:35:42.229Z,18.78
2023-04-18T06:38:59.281Z,17.35
2023-04-18T06:42:15.941Z,17.68
2023-04-18T06:45:37.633Z,18.53
2023-04-18T06:48:55.261Z,20.23
2023-04-18T06:52:11.925Z,17.58
2023-04-18T06:55:29.362Z,17.43
2023-04-18T06:58:46.244Z,17.35
2023-04-18T07:02:02.916Z,17.75
2023-04-18T07:05:19.839Z,17.58
2023-04-18T07:08:36.920Z,17.83
2023-04-18T07:11:53.583Z,17.65
2023-04-18T07:15:10.586Z,17.98
2023-04-18T07:18:37.201Z,17.35
2023-04-18T07:21:47.007Z,16.30
2023-04-18T07:25:03.451Z,16.00
2023-04-18T07:28:20.456Z,15.65
2023-04-18T07:31:37.304Z,15.00
2023-04-18T07:34:54.983Z,15.18
2023-04-18T07:38:12.806Z,14.58
2023-04-18T07:41:29.184Z,13.68
2023-04-18T07:44:46.749Z,12.93
2023-04-18T07:48:04.581Z,11.70
2023-04-18T07:51:21.600Z,12.68
2023-04-18T07:54:37.986Z,11.75
2023-04-18T07:57:54.563Z,11.05
2023-04-18T08:01:13.502Z,11.23
2023-04-18T08:04:30.776Z,10.23
2023-04-18T08:07:47.885Z,10.48
2023-04-18T08:11:07.368Z,10.90
2023-04-18T08:14:23.907Z,9.33
2023-04-18T08:17:40.452Z,9.23
2023-04-18T08:20:57.459Z,8.43
2023-04-18T08:24:14.824Z,8.40
2023-04-18T08:27:32.476Z,8.45
2023-04-18T08:30:50.106Z,8.93
2023-04-18T08:34:06.708Z,8.13
2023-04-18T08:37:23.430Z,8.68
2023-04-18T08:40:40.181Z,7.28
2023-04-18T08:43:59.137Z,7.03
2023-04-18T08:50:33.188Z,7.18
2023-04-18T08:53:51.602Z,7.30
2023-04-18T08:57:21.454Z,65.65
2023-04-18T09:00:38.130Z,32.80
2023-04-18T09:03:54.455Z,6.75
2023-04-18T09:07:12.695Z,7.00
2023-04-18T09:10:39.307Z,5.43
2023-04-18T09:13:57.436Z,6.25
2023-04-18T09:17:14.089Z,5.97
2023-04-18T09:20:41.907Z,5.95
2023-04-18T09:23:58.547Z,6.43
2023-04-18T09:27:19.696Z,5.30
2023-04-18T09:30:47.527Z,5.30
2023-04-18T09:34:04.062Z,5.13
2023-04-18T09:37:21.763Z,5.30
2023-04-18T09:40:38.545Z,5.30
2023-04-18T09:43:55.315Z,5.00
2023-04-18T09:47:13.779Z,5.50
2023-04-18T09:50:30.238Z,4.63
2023-04-18T09:53:51.159Z,4.45
2023-04-18T09:57:08.979Z,4.98
2023-04-18T10:00:31.529Z,4.70
2023-04-18T10:03:53.887Z,4.45
2023-04-18T10:07:10.985Z,12.35
2023-04-18T10:10:27.696Z,4.30
2023-04-18T10:13:47.208Z,4.30
2023-04-18T10:17:04.459Z,4.28
2023-04-18T10:20:28.559Z,4.00
2023-04-18T10:23:48.445Z,3.88
2023-04-18T10:27:05.979Z,4.53
2023-04-18T10:30:24.345Z,4.25
2023-04-18T10:33:49.707Z,4.47
2023-04-18T10:37:15.535Z,4.58
2023-04-18T10:40:43.700Z,4.23
2023-04-18T10:44:25.044Z,4.30
2023-04-18T10:47:41.711Z,3.70
2023-04-18T10:51:25.413Z,3.70
2023-04-18T10:54:47.478Z,3.58
2023-04-18T10:58:06.778Z,14.08
2023-04-18T11:01:32.360Z,4.53
2023-04-18T11:04:49.060Z,4.90
2023-04-18T11:08:05.914Z,3.85
2023-04-18T11:11:23.093Z,3.90
2023-04-18T11:14:51.008Z,4.95
2023-04-18T11:18:09.944Z,3.30
2023-04-18T11:21:29.850Z,3.40
2023-04-18T11:24:46.858Z,3.60
2023-04-18T11:28:05.932Z,3.95
2023-04-18T11:31:24.682Z,3.55
2023-04-18T11:34:41.934Z,3.50
2023-04-18T11:37:59.855Z,3.48
2023-04-18T11:41:21.871Z,3.00
2023-04-18T11:44:40.120Z,3.18
2023-04-18T11:47:59.546Z,3.17
2023-04-18T11:51:32.158Z,2.90
2023-04-18T11:54:52.970Z,3.50
2023-04-18T11:58:11.518Z,3.23
2023-04-18T12:01:30.890Z,3.15
2023-04-18T12:05:05.376Z,2.95
2023-04-18T12:08:25.501Z,3.15
2023-04-18T12:11:41.819Z,2.60
2023-04-18T12:15:05.558Z,3.20
2023-04-18T12:18:25.790Z,3.35
2023-04-18T12:21:44.768Z,2.70
2023-04-18T12:25:28.204Z,3.15
2023-04-18T12:28:45.132Z,2.80
2023-04-18T12:32:02.061Z,3.00
2023-04-18T12:35:19.821Z,6.68
2023-04-18T12:38:37.872Z,4.10
2023-04-18T12:41:55.110Z,3.25
2023-04-18T12:45:16.372Z,14.38
2023-04-18T12:48:32.833Z,7.58
2023-04-18T12:51:49.248Z,3.93
2023-04-18T12:55:06.637Z,3.70
2023-04-18T12:58:23.412Z,3.10
2023-04-18T13:01:40.177Z,3.25
2023-04-18T13:04:57.751Z,3.13
2023-04-18T13:08:17.653Z,3.40
2023-04-18T13:11:33.430Z,3.45
2023-04-18T13:14:50.249Z,8.98
2023-04-18T13:18:08.073Z,3.15
2023-04-18T13:21:29.311Z,2.80
2023-04-18T13:24:45.754Z,2.30
2023-04-18T13:28:02.856Z,2.90
2023-04-18T13:31:19.202Z,3.08
2023-04-18T13:34:35.760Z,2.85
2023-04-18T13:37:54.051Z,2.50
2023-04-18T13:41:13.300Z,2.68
2023-04-18T13:44:29.459Z,2.95
2023-04-18T13:47:45.784Z,6.90
2023-04-18T13:51:03.224Z,3.63
2023-04-18T13:54:28.845Z,4.15
2023-04-18T13:57:52.158Z,2.98
2023-04-18T14:01:09.459Z,3.58
2023-04-18T14:07:42.311Z,4.80
2023-04-18T14:10:59.076Z,3.08
2023-04-18T14:14:15.690Z,22.90
2023-04-18T14:17:32.334Z,18.60
2023-04-18T14:20:49.424Z,2.88
2023-04-18T14:24:05.849Z,2.60
2023-04-18T14:27:22.492Z,2.48
2023-04-18T14:30:39.512Z,2.78
2023-04-18T14:37:00.643Z,2.20
2023-04-18T14:40:20.226Z,3.25
2023-04-18T14:43:37.045Z,2.88
2023-04-18T14:46:53.801Z,2.30
2023-04-18T14:50:14.065Z,2.35
2023-04-18T14:53:30.682Z,2.30
2023-04-18T14:56:47.103Z,2.40
2023-04-18T15:00:03.797Z,2.40
2023-04-18T15:03:20.448Z,2.08
2023-04-18T15:06:37.165Z,9.68
2023-04-18T15:09:58.507Z,3.95
2023-04-18T15:13:15.026Z,3.10
2023-04-18T15:16:32.068Z,2.40
2023-04-18T15:19:51.396Z,2.18
2023-04-18T15:23:09.971Z,2.60
2023-04-18T15:26:27.077Z,2.93
2023-04-18T15:29:45.816Z,2.83
2023-04-18T15:33:08.308Z,3.40
2023-04-18T15:36:24.849Z,3.70
2023-04-18T15:39:41.619Z,3.85
2023-04-18T15:43:01.518Z,4.13
2023-04-18T15:46:18.301Z,3.68
2023-04-18T15:49:35.243Z,3.88
2023-04-18T15:52:51.690Z,3.88
2023-04-18T15:56:08.241Z,4.55
2023-04-18T15:59:25.139Z,4.23
2023-04-18T16:02:41.780Z,4.58
2023-04-18T16:05:58.791Z,24.93
2023-04-18T16:09:15.473Z,8.50
2023-04-18T16:12:31.895Z,5.63
2023-04-18T16:15:49.189Z,4.85
2023-04-18T16:19:22.841Z,4.63
2023-04-18T16:22:39.606Z,5.45
2023-04-18T16:25:56.156Z,4.75
2023-04-18T16:29:14.154Z,5.10
2023-04-18T16:32:32.405Z,5.20
2023-04-18T16:35:48.922Z,6.13
2023-04-18T16:39:11.476Z,5.28
2023-04-18T16:42:28.002Z,5.25
2023-04-18T16:45:44.390Z,5.00
2023-04-18T16:49:02.403Z,5.65
2023-04-18T16:52:18.894Z,5.18
2023-04-18T16:55:35.624Z,6.88
2023-04-18T16:58:51.917Z,6.58
2023-04-18T17:02:09.084Z,6.20
2023-04-18T17:05:27.352Z,6.78
2023-04-18T17:08:43.733Z,7.33
2023-04-18T17:12:03.448Z,6.75
2023-04-18T17:15:20.463Z,6.50
2023-04-18T17:18:36.949Z,6.40
2023-04-18T17:21:53.340Z,6.18
2023-04-18T17:25:11.655Z,7.20
2023-04-18T17:28:32.037Z,6.65
2023-04-18T17:31:48.490Z,31.00
2023-04-18T17:35:07.018Z,10.05
2023-04-18T17:38:23.805Z,7.18
2023-04-18T17:41:43.598Z,6.28
2023-04-18T17:44:59.972Z,6.88
2023-04-18T17:48:17.931Z,5.90
2023-04-18T17:51:35.302Z,5.70
2023-04-18T17:54:51.906Z,5.63
2023-04-18T17:58:08.697Z,6.90
2023-04-18T18:01:27.123Z,6.65
2023-04-18T18:04:44.019Z,6.75
2023-04-18T18:08:00.801Z,6.33
2023-04-18T18:11:18.208Z,5.58
2023-04-18T18:14:35.076Z,5.70
2023-04-18T18:17:56.115Z,5.70
2023-04-18T18:21:12.817Z,5.33
2023-04-18T18:24:35.446Z,6.48
2023-04-18T18:27:52.494Z,7.85
2023-04-18T18:31:11.052Z,8.58
2023-04-18T18:34:28.694Z,10.13
2023-04-18T18:37:47.164Z,10.08
2023-04-18T18:41:05.739Z,10.43
2023-04-18T18:44:28.568Z,9.57
2023-04-18T18:47:45.830Z,10.48
2023-04-18T18:51:02.457Z,13.23
2023-04-18T18:54:33.942Z,11.30
2023-04-18T18:57:55.433Z,10.60
2023-04-18T19:01:12.353Z,10.18
2023-04-18T19:04:34.043Z,11.13
2023-04-18T19:07:52.440Z,10.10
2023-04-18T19:11:09.932Z,10.40
2023-04-18T19:14:26.633Z,10.98
2023-04-18T19:17:43.020Z,79.45
2023-04-18T19:20:59.765Z,16.00
2023-04-18T19:24:26.710Z,12.77
2023-04-18T19:27:43.541Z,10.73
2023-04-18T19:31:00.219Z,11.90
2023-04-18T19:34:19.109Z,10.78
2023-04-18T19:37:36.949Z,11.30
2023-04-18T19:40:53.785Z,10.25
2023-04-18T19:44:10.723Z,11.48
2023-04-18T19:47:28.297Z,10.80
2023-04-18T19:50:49.541Z,10.28
2023-04-18T19:54:05.940Z,10.43
2023-04-18T19:57:22.898Z,10.05
2023-04-18T20:00:40.401Z,10.28
2023-04-18T20:03:59.459Z,10.68
2023-04-18T20:10:31.511Z,9.33
2023-04-18T20:13:48.322Z,10.30
2023-04-18T20:17:04.906Z,9.18
2023-04-18T20:20:22.352Z,9.55
2023-04-18T20:23:38.824Z,8.85
2023-04-18T20:26:55.260Z,8.68
2023-04-18T20:30:13.225Z,8.38
2023-04-18T20:33:29.753Z,8.25
2023-04-18T20:36:47.407Z,8.15
2023-04-18T20:40:05.561Z,7.25
2023-04-18T20:43:22.348Z,7.23
2023-04-18T20:46:38.909Z,7.05
2023-04-18T20:49:57.568Z,7.08
2023-04-18T20:53:14.270Z,6.78
2023-04-18T20:56:30.721Z,6.55
2023-04-18T20:59:47.058Z,7.08
2023-04-18T21:03:03.471Z,7.03
2023-04-18T21:06:22.217Z,6.60
2023-04-18T21:09:41.749Z,5.93
2023-04-18T21:12:58.147Z,7.03
2023-04-18T21:16:15.585Z,7.93
2023-04-18T21:19:32.641Z,9.20
2023-04-18T21:22:49.030Z,9.03
2023-04-18T21:26:05.657Z,9.18
2023-04-18T21:29:22.719Z,9.88
2023-04-18T21:32:39.024Z,10.63
2023-04-18T21:35:57.139Z,10.78
2023-04-18T21:39:13.821Z,10.85
2023-04-18T21:42:30.185Z,11.08
2023-04-18T21:45:46.554Z,11.83
2023-04-18T21:49:03.103Z,11.65
2023-04-18T21:52:19.602Z,11.85
2023-04-18T21:55:36.540Z,11.83
2023-04-18T21:58:53.115Z,12.60
2023-04-18T22:02:10.420Z,12.83
2023-04-18T22:05:28.955Z,12.65
2023-04-18T22:08:45.610Z,13.00
2023-04-18T22:12:03.880Z,12.85
2023-04-18T22:15:21.044Z,11.90
2023-04-18T22:18:38.823Z,12.45
2023-04-18T22:21:55.154Z,13.55
2023-04-18T22:25:12.545Z,14.05
2023-04-18T22:28:28.921Z,13.93
2023-04-18T22:31:45.521Z,13.83
2023-04-18T22:35:02.642Z,14.18
2023-04-18T22:38:19.348Z,13.83
2023-04-18T22:41:35.759Z,13.25
2023-04-18T22:44:52.792Z,13.83
2023-04-18T22:48:11.059Z,13.48
2023-04-18T22:51:29.236Z,14.00
2023-04-18T22:54:47.998Z,14.43
2023-04-18T22:58:04.342Z,13.95
2023-04-18T23:01:21.382Z,14.35
2023-04-18T23:04:40.864Z,14.80
2023-04-18T23:08:00.112Z,14.48
2023-04-18T23:11:17.915Z,15.15
2023-04-18T23:14:35.309Z,15.50
2023-04-18T23:17:51.673Z,15.08
2023-04-18T23:21:09.677Z,15.38
2023-04-18T23:24:27.265Z,15.98
2023-04-18T23:27:43.824Z,16.63
2023-04-18T23:31:00.388Z,15.90
2023-04-18T23:34:17.472Z,15.58
2023-04-18T23:37:34.010Z,16.65
2023-04-18T23:40:50.357Z,15.95
2023-04-18T23:44:07.169Z,16.40
2023-04-18T23:47:23.577Z,15.78
2023-04-18T23:50:41.257Z,15.73
2023-04-18T23:53:58.851Z,15.28
2023-04-18T23:57:15.180Z,16.35
